createdAt,value
2023-03-10T00:01:45.259Z,98477.36
2023-03-10T00:06:49.081Z,98473.73
2023-03-10T00:11:52.701Z,98470.27
2023-03-10T00:16:56.108Z,98465.02
2023-03-10T00:22:00.139Z,98456.45
2023-03-10T00:27:03.658Z,98450.53
2023-03-10T00:32:07.681Z,98451.05
2023-03-10T00:37:11.520Z,98442.73
2023-03-10T00:42:14.921Z,98438.69
2023-03-10T00:47:18.437Z,98433.35
2023-03-10T00:52:21.957Z,98422.64
2023-03-10T00:57:25.470Z,98415.03
2023-03-10T01:02:28.881Z,98409.63
2023-03-10T01:07:32.402Z,98408.15
2023-03-10T01:12:36.018Z,98401.20
2023-03-10T01:17:39.429Z,98385.54
2023-03-10T01:22:44.010Z,98383.07
2023-03-10T01:27:47.280Z,98369.95
2023-03-10T01:32:51.070Z,98363.45
2023-03-10T01:37:55.126Z,98364.33
2023-03-10T01:43:20.041Z,98359.10
2023-03-10T01:48:24.377Z,98351.58
2023-03-10T01:53:28.512Z,98338.79
2023-03-10T01:58:40.930Z,98328.33
2023-03-10T02:03:54.075Z,98318.39
2023-03-10T02:09:02.317Z,98305.05
2023-03-10T02:14:06.710Z,98301.83
2023-03-10T02:19:17.625Z,98298.48
2023-03-10T02:24:31.689Z,98286.92
2023-03-10T02:29:52.464Z,98272.45
2023-03-10T02:35:00.330Z,98264.75
2023-03-10T02:40:22.888Z,98257.27
2023-03-10T02:45:29.580Z,98251.52
2023-03-10T02:50:38.418Z,98241.60
2023-03-10T02:55:41.939Z,98232.94
2023-03-10T03:00:47.944Z,98221.02
2023-03-10T03:05:51.946Z,98217.73
2023-03-10T03:10:55.963Z,98206.20
2023-03-10T03:15:59.474Z,98191.76
2023-03-10T03:21:07.604Z,98184.14
2023-03-10T03:26:19.720Z,98185.56
2023-03-10T03:31:25.913Z,98187.19
2023-03-10T03:36:29.306Z,98171.73
2023-03-10T03:41:34.050Z,98159.54
2023-03-10T03:46:37.672Z,98149.35
2023-03-10T03:51:41.491Z,98142.73
2023-03-10T03:56:44.907Z,98133.23
2023-03-10T04:01:48.625Z,98122.94
2023-03-10T04:06:52.500Z,98116.85
2023-03-10T04:11:56.063Z,98109.30
2023-03-10T04:16:59.737Z,98090.55
2023-03-10T04:22:03.299Z,98092.30
2023-03-10T04:27:09.687Z,98073.17
2023-03-10T04:32:13.138Z,98056.02
2023-03-10T04:37:16.723Z,98056.86
2023-03-10T04:42:20.348Z,98062.42
2023-03-10T04:47:23.948Z,98044.02
2023-03-10T04:52:27.468Z,98048.42
2023-03-10T04:57:30.889Z,98033.91
2023-03-10T05:02:35.729Z,98025.91
2023-03-10T05:07:39.562Z,98013.66
2023-03-10T05:12:43.063Z,98004.89
2023-03-10T05:17:48.891Z,97996.58
2023-03-10T05:22:53.561Z,97987.83
2023-03-10T05:27:56.989Z,97969.43
2023-03-10T05:33:00.402Z,97962.68
2023-03-10T05:38:04.023Z,97953.05
2023-03-10T05:43:07.943Z,97944.00
2023-03-10T05:48:11.463Z,97935.58
2023-03-10T05:53:15.432Z,97922.14
2023-03-10T05:58:18.902Z,97914.70
2023-03-10T06:03:24.000Z,97908.32
2023-03-10T06:08:30.661Z,97904.48
2023-03-10T06:13:34.241Z,97894.15
2023-03-10T06:18:37.878Z,97890.98
2023-03-10T06:23:41.905Z,97880.89
2023-03-10T06:28:47.272Z,97871.85
2023-03-10T06:33:51.091Z,97866.79
2023-03-10T06:38:55.562Z,97863.17
2023-03-10T06:43:59.044Z,97855.99
2023-03-10T06:49:02.466Z,97854.65
2023-03-10T06:54:06.387Z,97845.77
2023-03-10T06:59:09.798Z,97836.72
2023-03-10T07:04:13.445Z,97836.20
2023-03-10T07:09:16.937Z,97833.88
2023-03-10T07:14:20.409Z,97830.65
2023-03-10T07:19:25.849Z,97827.59
2023-03-10T07:24:29.331Z,97822.36
2023-03-10T07:29:32.929Z,97817.98
2023-03-10T07:34:36.344Z,97812.45
2023-03-10T07:39:39.767Z,97806.89
2023-03-10T07:44:43.250Z,97801.48
2023-03-10T07:49:47.228Z,97794.45
2023-03-10T07:54:51.024Z,97793.04
2023-03-10T07:59:54.628Z,97785.96
2023-03-10T08:04:58.318Z,97782.64
2023-03-10T08:10:01.784Z,97784.67
2023-03-10T08:15:06.990Z,97779.38
2023-03-10T08:20:13.560Z,97773.43
2023-03-10T08:25:17.348Z,97760.67
2023-03-10T08:30:20.960Z,97748.06
2023-03-10T08:35:24.472Z,97735.08
2023-03-10T08:40:27.985Z,97726.35
2023-03-10T08:45:34.678Z,97714.21
2023-03-10T08:50:38.091Z,97700.18
2023-03-10T08:55:42.852Z,97693.17
2023-03-10T09:00:46.555Z,97688.81
2023-03-10T09:05:50.587Z,97676.80
2023-03-10T09:10:53.996Z,97670.09
2023-03-10T09:15:57.666Z,97663.55
2023-03-10T09:21:02.154Z,97663.34
2023-03-10T09:26:05.773Z,97658.63
2023-03-10T09:31:12.068Z,97651.70
2023-03-10T09:36:17.522Z,97648.17
2023-03-10T09:41:34.706Z,97642.92
2023-03-10T09:46:51.084Z,97634.32
2023-03-10T09:51:54.477Z,97623.81
2023-03-10T09:57:00.972Z,97617.33
2023-03-10T10:02:20.765Z,97608.13
2023-03-10T10:07:28.782Z,97603.78
2023-03-10T10:12:32.507Z,97604.47
2023-03-10T10:18:17.569Z,97595.38
2023-03-10T10:23:45.611Z,97589.15
2023-03-10T10:28:56.880Z,97589.00
2023-03-10T10:34:22.486Z,97581.89
2023-03-10T10:39:28.275Z,97569.69
2023-03-10T10:44:41.049Z,97562.88
2023-03-10T10:49:45.345Z,97558.85
2023-03-10T10:54:56.875Z,97548.25
2023-03-10T11:00:18.706Z,97546.11
2023-03-10T11:05:31.590Z,97538.05
2023-03-10T11:10:34.942Z,97535.27
2023-03-10T11:15:58.502Z,97529.05
2023-03-10T11:21:27.443Z,97519.00
2023-03-10T11:26:52.357Z,97514.41
2023-03-10T11:32:32.220Z,97504.16
2023-03-10T11:37:47.519Z,97498.68
2023-03-10T11:43:01.993Z,97497.35
2023-03-10T11:48:24.142Z,97489.55
2023-03-10T11:53:48.242Z,97478.08
2023-03-10T11:59:10.293Z,97475.85
2023-03-10T12:04:58.053Z,97476.02
2023-03-10T12:10:12.723Z,97476.86
2023-03-10T12:15:26.685Z,97478.54
2023-03-10T12:20:32.580Z,97483.15
2023-03-10T12:25:38.452Z,97478.55
2023-03-10T12:31:06.980Z,97474.98
2023-03-10T12:36:34.614Z,97474.85
2023-03-10T12:41:47.059Z,97469.48
2023-03-10T12:46:53.374Z,97466.77
2023-03-10T12:52:21.193Z,97456.16
2023-03-10T12:57:52.769Z,97454.04
2023-03-10T13:03:11.338Z,97451.45
2023-03-10T13:08:48.444Z,97460.58
2023-03-10T13:14:00.456Z,97465.27
2023-03-10T13:19:04.920Z,97462.46
2023-03-10T13:24:20.393Z,97461.02
2023-03-10T13:29:23.703Z,97459.80
2023-03-10T13:34:29.550Z,97459.36
2023-03-10T13:39:33.607Z,97466.24
2023-03-10T13:44:41.727Z,97467.94
2023-03-10T13:49:59.478Z,97464.38
2023-03-10T13:55:13.686Z,97470.78
2023-03-10T14:00:23.411Z,97471.81
2023-03-10T14:05:45.910Z,97464.31
2023-03-10T14:10:50.098Z,97453.09
2023-03-10T14:15:55.251Z,97449.48
2023-03-10T14:20:58.554Z,97445.22
2023-03-10T14:26:01.962Z,97446.35
2023-03-10T14:31:07.142Z,97450.35
2023-03-10T14:36:12.271Z,97458.66
2023-03-10T14:41:19.270Z,97457.42
2023-03-10T14:46:23.047Z,97453.61
2023-03-10T14:51:35.396Z,97456.49
2023-03-10T14:56:39.543Z,97460.56
2023-03-10T15:01:43.514Z,97459.30
2023-03-10T15:06:46.879Z,97466.38
2023-03-10T15:11:50.309Z,97462.03
2023-03-10T15:16:55.651Z,97457.27
2023-03-10T15:21:59.106Z,97451.27
2023-03-10T15:27:04.718Z,97449.33
2023-03-10T15:32:08.359Z,97454.08
2023-03-10T15:37:12.902Z,97451.75
2023-03-10T15:42:16.303Z,97450.27
2023-03-10T15:47:19.728Z,97444.03
2023-03-10T15:52:23.746Z,97441.98
2023-03-10T15:57:27.063Z,97441.19
2023-03-10T16:02:30.583Z,97440.70
2023-03-10T16:07:34.192Z,97442.33
2023-03-10T16:12:37.702Z,97453.42
2023-03-10T16:17:41.362Z,97455.27
2023-03-10T16:22:46.058Z,97444.88
2023-03-10T16:27:50.502Z,97443.08
2023-03-10T16:32:53.984Z,97436.04
2023-03-10T16:37:57.438Z,97433.66
2023-03-10T16:43:00.980Z,97430.93
2023-03-10T16:48:04.766Z,97432.83
2023-03-10T16:53:08.383Z,97430.79
2023-03-10T16:58:11.803Z,97444.35
2023-03-10T17:03:15.368Z,97448.91
2023-03-10T17:08:18.829Z,97449.06
2023-03-10T17:13:22.350Z,97436.02
2023-03-10T17:18:25.756Z,97440.75
2023-03-10T17:23:29.274Z,97453.38
2023-03-10T17:28:32.686Z,97448.35
2023-03-10T17:33:36.412Z,97438.66
2023-03-10T17:38:40.854Z,97428.05
2023-03-10T17:43:44.261Z,97427.84
2023-03-10T17:48:48.594Z,97424.66
2023-03-10T17:53:53.718Z,97421.98
2023-03-10T17:58:58.319Z,97424.61
2023-03-10T18:04:02.015Z,97429.42
2023-03-10T18:09:08.355Z,97428.23
2023-03-10T18:14:11.706Z,97427.02
2023-03-10T18:19:17.940Z,97420.92
2023-03-10T18:24:21.727Z,97412.31
2023-03-10T18:29:25.221Z,97407.70
2023-03-10T18:34:28.544Z,97403.06
2023-03-10T18:39:32.067Z,97402.91
2023-03-10T18:44:35.662Z,97404.41
2023-03-10T18:49:39.586Z,97395.05
2023-03-10T18:54:43.953Z,97391.93
2023-03-10T18:59:47.134Z,97389.06
2023-03-10T19:04:50.656Z,97385.82
2023-03-10T19:09:54.793Z,97390.13
2023-03-10T19:15:07.888Z,97381.17
2023-03-10T19:20:13.843Z,97381.84
2023-03-10T19:25:18.860Z,97377.59
2023-03-10T19:30:22.686Z,97364.02
2023-03-10T19:35:26.180Z,97356.19
2023-03-10T19:40:29.943Z,97346.40
2023-03-10T19:45:33.824Z,97347.97
2023-03-10T19:50:38.177Z,97344.00
2023-03-10T19:55:43.724Z,97336.31
2023-03-10T20:00:47.972Z,97336.63
2023-03-10T20:05:51.876Z,97333.47
2023-03-10T20:11:01.848Z,97331.00
2023-03-10T20:16:06.056Z,97330.37
2023-03-10T20:21:09.811Z,97324.05
2023-03-10T20:26:14.133Z,97317.61
2023-03-10T20:31:23.142Z,97310.32
2023-03-10T20:36:27.002Z,97300.66
2023-03-10T20:41:30.516Z,97298.87
2023-03-10T20:46:33.961Z,97293.96
2023-03-10T20:51:39.207Z,97280.06
2023-03-10T20:56:42.599Z,97277.04
2023-03-10T21:01:45.908Z,97275.40
2023-03-10T21:06:49.323Z,97280.25
2023-03-10T21:11:52.949Z,97286.73
2023-03-10T21:17:00.076Z,97276.79
2023-03-10T21:22:03.758Z,97274.65
2023-03-10T21:27:07.387Z,97270.79
2023-03-10T21:32:10.982Z,97257.92
2023-03-10T21:37:14.595Z,97250.61
2023-03-10T21:42:18.032Z,97249.25
2023-03-10T21:47:21.441Z,97239.27
2023-03-10T21:52:25.309Z,97228.33
2023-03-10T21:57:28.780Z,97216.02
2023-03-10T22:02:35.689Z,97203.61
2023-03-10T22:07:39.609Z,97223.52
2023-03-10T22:12:43.530Z,97223.88
2023-03-10T22:17:47.450Z,97215.23
2023-03-10T22:22:51.540Z,97193.45
2023-03-10T22:27:56.532Z,97196.45
2023-03-10T22:33:00.041Z,97183.69
2023-03-10T22:38:04.798Z,97175.64
2023-03-10T22:43:08.098Z,97176.85
2023-03-10T22:48:11.506Z,97170.63
2023-03-10T22:53:17.817Z,97158.68
2023-03-10T22:58:21.302Z,97157.59
2023-03-10T23:03:24.819Z,97144.11
2023-03-10T23:08:28.890Z,97143.61
2023-03-10T23:13:32.364Z,97136.98
2023-03-10T23:18:35.993Z,97129.11
2023-03-10T23:23:40.218Z,97121.00
2023-03-10T23:28:43.849Z,97118.59
2023-03-10T23:33:47.349Z,97115.08
2023-03-10T23:38:50.762Z,97118.16
2023-03-10T23:43:55.303Z,97121.23
2023-03-10T23:48:58.820Z,97116.66
2023-03-10T23:54:02.432Z,97111.17
2023-03-10T23:59:05.949Z,97104.94
